Time;durP1;ratioP1;P1;durP2;ratioP2;P2;SDS_P1;SDS_P2;PMS_P1;PMS_P2;Temp;Humidity;BMP_temperature;BMP_pressure;BME280_temperature;BME280_humidity;BME280_pressure;Samples;Min_cycle;Max_cycle;Signal;HPM_P1;HPM_P2
2022/07/01 00:02:05;;;;;;;5.32;0.77;;;16.20;99.90;;;;;;5046698;28;20033;-68
2022/07/01 00:04:31;;;;;;;3.28;1.08;;;16.40;99.90;;;;;;5015200;28;20042;-68
2022/07/01 00:06:56;;;;;;;5.07;0.80;;;16.30;99.90;;;;;;5033174;28;20029;-68
2022/07/01 00:09:22;;;;;;;1.98;0.52;;;16.20;99.90;;;;;;5036045;22;20076;-71
2022/07/01 00:11:48;;;;;;;8.50;1.13;;;16.40;99.90;;;;;;5012215;28;20065;-72
2022/07/01 00:14:14;;;;;;;1.52;0.60;;;16.30;99.90;;;;;;5013342;28;20069;-72
2022/07/01 00:16:40;;;;;;;2.15;0.98;;;16.40;99.90;;;;;;5012051;28;20121;-71
2022/07/01 00:19:06;;;;;;;2.88;0.82;;;16.30;99.90;;;;;;5012793;28;20483;-70
2022/07/01 00:21:32;;;;;;;1.15;0.47;;;16.90;99.90;;;;;;5013489;28;20551;-72
2022/07/01 00:23:58;;;;;;;3.50;0.90;;;16.30;99.90;;;;;;5011962;28;20125;-71
2022/07/01 00:26:24;;;;;;;0.90;0.68;;;16.30;99.90;;;;;;5013638;28;20117;-70
2022/07/01 00:28:50;;;;;;;1.58;0.90;;;16.30;99.90;;;;;;5012935;28;20116;-71
2022/07/01 00:31:15;;;;;;;0.98;0.88;;;16.00;99.90;;;;;;4995297;28;20046;-71
2022/07/01 00:33:41;;;;;;;2.97;1.00;;;16.10;99.90;;;;;;5012748;28;20492;-70
2022/07/01 00:36:06;;;;;;;5.03;1.77;;;16.30;99.90;;;;;;4995423;28;20042;-72
2022/07/01 00:38:32;;;;;;;6.97;1.25;;;16.60;99.90;;;;;;5012945;28;20080;-71
2022/07/01 00:40:58;;;;;;;4.72;1.02;;;16.30;99.90;;;;;;4994552;28;20038;-70
2022/07/01 00:43:24;;;;;;;1.92;0.95;;;16.50;99.90;;;;;;5011755;28;20037;-70
2022/07/01 00:45:51;;;;;;;2.15;1.00;;;16.10;99.90;;;;;;5013018;28;20041;-70
2022/07/01 00:48:18;;;;;;;1.17;1.00;;;16.10;99.90;;;;;;4995383;28;20119;-70
2022/07/01 00:50:44;;;;;;;1.70;0.80;;;16.10;99.90;;;;;;5012039;28;20057;-70
2022/07/01 00:53:11;;;;;;;2.45;0.80;;;15.80;99.90;;;;;;5011352;28;20045;-70
2022/07/01 00:55:36;;;;;;;0.73;0.63;;;16.30;99.90;;;;;;5012742;28;20125;-70
2022/07/01 00:58:02;;;;;;;0.63;0.43;;;16.90;99.90;;;;;;5011171;28;20129;-70
2022/07/01 01:00:28;;;;;;;1.23;0.80;;;16.00;99.90;;;;;;5008875;28;20574;-70
2022/07/01 01:02:53;;;;;;;0.77;0.68;;;15.80;99.90;;;;;;4995292;28;20582;-70
2022/07/01 01:05:21;;;;;;;0.73;0.70;;;15.80;99.90;;;;;;4995007;28;20038;-70
2022/07/01 01:07:50;;;;;;;0.90;0.60;;;15.90;99.90;;;;;;5011078;28;20507;-70
2022/07/01 01:10:19;;;;;;;2.97;0.93;;;16.40;99.90;;;;;;5011720;28;20408;-70
2022/07/01 01:12:45;;;;;;;3.55;0.70;;;15.80;99.90;;;;;;5012277;28;20428;-70
2022/07/01 01:15:16;;;;;;;1.60;0.90;;;16.90;99.90;;;;;;5011381;28;20045;-70
2022/07/01 01:17:42;;;;;;;1.58;0.88;;;15.90;99.90;;;;;;5011255;28;20077;-70
2022/07/01 01:20:08;;;;;;;1.48;0.80;;;16.10;99.90;;;;;;5011565;28;20061;-70
2022/07/01 01:22:34;;;;;;;3.13;1.30;;;16.00;99.90;;;;;;5011281;28;20068;-70
2022/07/01 01:24:59;;;;;;;1.63;0.88;;;16.00;99.90;;;;;;5012672;28;20034;-70
2022/07/01 01:27:25;;;;;;;1.27;0.90;;;16.00;99.90;;;;;;5012583;28;20038;-69
2022/07/01 01:29:51;;;;;;;1.42;1.20;;;16.40;99.90;;;;;;5010105;28;20041;-70
2022/07/01 01:32:16;;;;;;;1.65;1.00;;;16.00;99.90;;;;;;4994533;28;20472;-70
2022/07/01 01:34:42;;;;;;;1.67;1.20;;;16.30;99.90;;;;;;5011035;28;20048;-73
2022/07/01 01:37:09;;;;;;;3.83;1.20;;;16.00;99.90;;;;;;5011143;28;20072;-70
2022/07/01 01:39:37;;;;;;;2.72;1.30;;;15.90;99.90;;;;;;4993664;28;20484;-70
2022/07/01 01:42:04;;;;;;;3.00;1.20;;;16.10;99.90;;;;;;5011924;28;20412;-72
2022/07/01 01:44:30;;;;;;;2.22;1.10;;;16.10;99.90;;;;;;5009991;28;20040;-72
2022/07/01 01:46:55;;;;;;;2.53;1.20;;;16.00;99.90;;;;;;5011927;28;20121;-72
2022/07/01 01:49:21;;;;;;;0.88;0.82;;;15.90;99.90;;;;;;5011070;28;20037;-70
2022/07/01 01:51:47;;;;;;;9.25;1.40;;;16.20;99.90;;;;;;5010722;28;20034;-71
2022/07/01 01:54:12;;;;;;;2.35;1.40;;;16.10;99.90;;;;;;4994619;28;20034;-70
2022/07/01 01:56:38;;;;;;;4.78;1.48;;;16.00;99.90;;;;;;4994189;28;20488;-72
2022/07/01 01:59:04;;;;;;;2.50;1.17;;;15.90;99.90;;;;;;5011326;28;20073;-72
2022/07/01 02:01:30;;;;;;;4.72;1.35;;;16.00;99.90;;;;;;4992796;28;20042;-72
2022/07/01 02:03:56;;;;;;;2.05;1.23;;;15.90;99.90;;;;;;4994610;28;20045;-70
2022/07/01 02:06:22;;;;;;;2.90;1.35;;;15.90;99.90;;;;;;5011815;28;20116;-72
2022/07/01 02:08:48;;;;;;;2.78;1.83;;;16.70;99.90;;;;;;5011661;28;20054;-72
2022/07/01 02:11:14;;;;;;;3.10;1.50;;;15.90;99.90;;;;;;4993511;28;20520;-70
2022/07/01 02:13:39;;;;;;;1.40;1.30;;;16.60;99.90;;;;;;5011147;28;20096;-70
2022/07/01 02:16:05;;;;;;;3.78;1.48;;;16.10;99.90;;;;;;5012505;28;20046;-70
2022/07/01 02:18:32;;;;;;;1.95;1.38;;;17.20;99.90;;;;;;5010429;28;20042;-70
2022/07/01 02:21:01;;;;;;;2.10;1.48;;;15.90;99.90;;;;;;5010130;28;20041;-70
2022/07/01 02:23:26;;;;;;;3.80;1.90;;;15.80;99.90;;;;;;5012009;28;20045;-71
2022/07/01 02:25:52;;;;;;;3.80;2.15;;;15.80;99.90;;;;;;5011824;28;20038;-70
2022/07/01 02:28:18;;;;;;;2.97;1.88;;;16.70;99.90;;;;;;5010507;28;20385;-70
2022/07/01 02:30:43;;;;;;;3.60;1.42;;;15.80;99.90;;;;;;5009649;28;20610;-70
2022/07/01 02:33:09;;;;;;;5.53;2.00;;;15.90;99.90;;;;;;5011631;28;20038;-69
2022/07/01 02:35:37;;;;;;;1.83;1.60;;;15.70;99.90;;;;;;5011465;28;20064;-70
2022/07/01 02:38:04;;;;;;;4.60;2.20;;;16.00;99.90;;;;;;5010278;28;20564;-70
2022/07/01 02:40:30;;;;;;;4.25;2.25;;;16.50;99.90;;;;;;4993142;28;20124;-70
2022/07/01 02:42:55;;;;;;;3.90;1.90;;;16.30;99.90;;;;;;5011525;28;20113;-71
2022/07/01 02:45:21;;;;;;;3.17;2.00;;;15.80;99.90;;;;;;5010536;28;20034;-70
2022/07/01 02:47:47;;;;;;;3.42;2.20;;;15.90;99.90;;;;;;5010286;28;20034;-70
2022/07/01 02:50:14;;;;;;;2.55;1.73;;;15.80;99.90;;;;;;5010626;28;20122;-70
2022/07/01 02:52:41;;;;;;;2.65;1.92;;;16.10;99.90;;;;;;5010194;28;20132;-70
2022/07/01 02:55:09;;;;;;;3.83;2.28;;;15.70;99.90;;;;;;5011541;28;20046;-69
2022/07/01 02:57:36;;;;;;;6.35;2.40;;;15.80;99.90;;;;;;5013692;28;20038;-70
2022/07/01 03:00:06;;;;;;;6.43;1.98;;;15.80;99.90;;;;;;5012899;28;20042;-70
2022/07/01 03:02:33;;;;;;;4.75;2.25;;;15.80;99.90;;;;;;5013177;28;20045;-70
2022/07/01 03:04:58;;;;;;;4.13;2.05;;;15.60;99.90;;;;;;5013773;28;20113;-70
2022/07/01 03:07:24;;;;;;;4.35;2.17;;;15.90;99.90;;;;;;5014838;28;20045;-70
2022/07/01 03:09:50;;;;;;;3.00;2.00;;;15.90;99.90;;;;;;5013700;28;20041;-70
2022/07/01 03:12:24;;;;;;;4.40;2.30;;;15.50;99.90;;;;;;5014675;28;20119;-70
2022/07/01 03:15:10;;;;;;;6.47;2.30;;;15.80;99.90;;;;;;5014530;28;20042;-70
2022/07/01 03:17:38;;;;;;;4.95;2.20;;;15.60;99.90;;;;;;5014885;28;20041;-70
2022/07/01 03:20:12;;;;;;;4.95;2.95;;;15.90;99.90;;;;;;5012642;28;20402;-70
2022/07/01 03:22:38;;;;;;;5.60;2.42;;;15.70;99.90;;;;;;5013252;28;20049;-70
2022/07/01 03:25:05;;;;;;;5.22;2.72;;;15.80;99.90;;;;;;5012970;28;20038;-70
2022/07/01 03:27:31;;;;;;;3.38;2.40;;;15.90;99.90;;;;;;5013062;28;20037;-70
2022/07/01 03:29:57;;;;;;;3.60;2.58;;;16.00;99.90;;;;;;5012191;28;20461;-70
2022/07/01 03:32:23;;;;;;;4.97;2.65;;;16.60;99.90;;;;;;5013088;28;20562;-70
2022/07/01 03:34:51;;;;;;;3.67;3.03;;;16.30;99.90;;;;;;5013251;28;20389;-70
2022/07/01 03:37:18;;;;;;;6.57;2.85;;;15.50;99.90;;;;;;5014153;28;20046;-71
2022/07/01 03:39:44;;;;;;;3.53;2.90;;;15.40;99.90;;;;;;5011980;28;20033;-70
2022/07/01 03:42:10;;;;;;;5.57;2.80;;;15.70;99.90;;;;;;5014345;28;20622;-71
2022/07/01 03:44:37;;;;;;;5.82;3.20;;;15.60;99.90;;;;;;5013149;28;20046;-71
2022/07/01 03:47:05;;;;;;;3.33;2.97;;;15.60;99.90;;;;;;5012961;28;20112;-71
2022/07/01 03:49:34;;;;;;;5.03;2.97;;;16.00;99.90;;;;;;4995691;28;20033;-72
2022/07/01 03:52:01;;;;;;;5.40;3.33;;;15.60;99.90;;;;;;5012700;28;20500;-71
2022/07/01 03:54:29;;;;;;;3.97;3.30;;;15.40;99.90;;;;;;5012422;28;20046;-71
2022/07/01 03:57:09;;;;;;;5.68;3.70;;;15.60;99.90;;;;;;4996041;28;20048;-71
2022/07/01 03:59:36;;;;;;;6.43;3.60;;;15.40;99.90;;;;;;5011935;28;20092;-71
2022/07/01 04:02:04;;;;;;;5.13;3.85;;;15.30;99.90;;;;;;5011252;28;20033;-71
2022/07/01 04:04:30;;;;;;;5.88;3.50;;;15.50;99.90;;;;;;5013613;28;20412;-71
2022/07/01 04:06:58;;;;;;;4.95;3.45;;;15.50;99.90;;;;;;4995401;28;20107;-71
2022/07/01 04:09:25;;;;;;;8.27;3.80;;;15.70;99.90;;;;;;5011140;28;20125;-71
2022/07/01 04:11:51;;;;;;;4.22;3.58;;;15.70;99.90;;;;;;5012459;28;20037;-71
2022/07/01 04:14:18;;;;;;;6.15;3.30;;;15.80;99.90;;;;;;5012215;28;20045;-71
2022/07/01 04:16:44;;;;;;;4.40;3.70;;;15.70;99.90;;;;;;5012203;28;20187;-70
2022/07/01 04:19:10;;;;;;;7.85;3.63;;;15.80;99.90;;;;;;5011167;28;20049;-71
2022/07/01 04:24:24;;;;;;;7.65;3.67;;;15.80;99.90;;;;;;5012146;28;20096;-71
2022/07/01 04:26:53;;;;;;;7.07;4.57;;;15.70;99.90;;;;;;5013368;28;20472;-71
2022/07/01 04:29:19;;;;;;;7.68;4.38;;;15.70;99.90;;;;;;5011098;28;20474;-71
2022/07/01 04:31:45;;;;;;;6.15;3.58;;;15.90;99.90;;;;;;5013406;28;20113;-71
2022/07/01 04:34:11;;;;;;;8.90;3.65;;;15.80;99.90;;;;;;4995524;28;20038;-71
2022/07/01 04:36:37;;;;;;;9.05;3.97;;;15.80;99.90;;;;;;5012005;28;20443;-71
2022/07/01 04:39:04;;;;;;;6.50;3.75;;;15.80;99.90;;;;;;5011138;28;20539;-71
2022/07/01 04:44:15;;;;;;;8.30;3.80;;;16.80;99.90;;;;;;5011796;28;20056;-71
2022/07/01 04:46:41;;;;;;;5.60;3.05;;;16.50;99.90;;;;;;4995289;28;20037;-71
2022/07/01 04:49:07;;;;;;;8.52;2.92;;;15.90;99.90;;;;;;5012141;28;20045;-69
2022/07/01 04:51:34;;;;;;;4.82;3.13;;;15.90;99.90;;;;;;5011597;28;20105;-71
2022/07/01 04:54:01;;;;;;;5.82;2.90;;;15.70;99.90;;;;;;5011665;28;20419;-70
2022/07/01 04:56:28;;;;;;;3.92;2.97;;;15.70;99.90;;;;;;5011434;28;20049;-71
2022/07/01 04:58:54;;;;;;;9.13;3.53;;;15.90;99.90;;;;;;5012363;28;20118;-70
2022/07/01 05:01:20;;;;;;;4.38;2.47;;;15.70;99.90;;;;;;4993706;28;20045;-71
2022/07/01 05:03:46;;;;;;;7.45;2.78;;;15.80;99.90;;;;;;5011513;28;20034;-71
2022/07/01 05:06:11;;;;;;;4.07;3.13;;;16.10;99.90;;;;;;5012579;28;20034;-71
2022/07/01 05:08:37;;;;;;;6.72;3.45;;;16.00;99.90;;;;;;5010985;28;20479;-71
2022/07/01 05:11:03;;;;;;;7.63;3.30;;;16.00;99.90;;;;;;5011860;28;20038;-71
2022/07/01 05:13:28;;;;;;;7.15;3.28;;;15.80;99.90;;;;;;5012690;28;20044;-71
2022/07/01 05:15:54;;;;;;;6.57;3.67;;;15.90;99.90;;;;;;5012534;28;20045;-71
2022/07/01 05:23:48;;;;;;;6.65;3.78;;;15.90;99.90;;;;;;5011145;28;20041;-71
2022/07/01 05:26:16;;;;;;;8.32;3.25;;;15.80;99.90;;;;;;5012211;28;20034;-71
2022/07/01 05:28:44;;;;;;;5.75;3.67;;;15.90;99.90;;;;;;4994653;28;20515;-71
2022/07/01 05:31:10;;;;;;;8.23;3.65;;;15.90;99.90;;;;;;5010212;28;20037;-71
2022/07/01 05:33:35;;;;;;;9.35;4.72;;;17.20;99.90;;;;;;5011187;28;20072;-71
2022/07/01 05:36:01;;;;;;;8.15;4.47;;;16.40;99.90;;;;;;5012143;28;20045;-72
2022/07/01 05:38:27;;;;;;;9.20;4.80;;;16.40;99.90;;;;;;4994439;28;20042;-71
2022/07/01 05:40:53;;;;;;;8.90;5.05;;;16.10;99.90;;;;;;5010391;28;20309;-71
2022/07/01 05:43:19;;;;;;;9.43;4.70;;;16.00;99.90;;;;;;4994528;28;20121;-71
2022/07/01 05:45:45;;;;;;;10.95;5.65;;;16.00;99.90;;;;;;5012050;28;20435;-71
2022/07/01 05:48:11;;;;;;;11.65;5.45;;;16.00;99.90;;;;;;5010612;28;20042;-71
2022/07/01 05:50:37;;;;;;;10.70;6.20;;;16.80;99.90;;;;;;5010146;28;20475;-70
2022/07/01 05:53:02;;;;;;;11.55;5.32;;;15.90;99.90;;;;;;5010644;28;20041;-71
2022/07/01 05:55:28;;;;;;;13.45;6.40;;;16.10;99.90;;;;;;5010581;28;20049;-71
2022/07/01 05:57:54;;;;;;;13.75;6.25;;;16.00;99.90;;;;;;5010523;28;20037;-71
2022/07/01 06:00:20;;;;;;;7.97;5.60;;;16.00;99.90;;;;;;4992569;28;20127;-71
2022/07/01 06:02:46;;;;;;;11.60;6.72;;;16.70;99.90;;;;;;5010579;28;20515;-71
2022/07/01 06:05:13;;;;;;;9.55;6.85;;;16.20;99.90;;;;;;5011973;28;20091;-71
2022/07/01 06:07:40;;;;;;;15.95;7.03;;;16.20;99.90;;;;;;5010823;28;20046;-71
2022/07/01 06:10:07;;;;;;;11.85;6.95;;;16.20;99.90;;;;;;5035077;23;20048;-70
2022/07/01 06:12:33;;;;;;;12.32;7.95;;;16.20;99.90;;;;;;5050911;28;20056;-71
2022/07/01 06:14:58;;;;;;;11.73;7.95;;;16.30;99.90;;;;;;5051288;28;20037;-70
2022/07/01 06:17:24;;;;;;;12.35;8.27;;;16.30;99.90;;;;;;5033354;28;20556;-70
2022/07/01 06:19:49;;;;;;;14.02;7.90;;;16.40;99.90;;;;;;5043210;28;20136;-69
2022/07/01 06:22:17;;;;;;;14.55;8.68;;;16.50;99.90;;;;;;5049623;28;20064;-70
2022/07/01 06:24:44;;;;;;;14.35;9.40;;;16.40;99.90;;;;;;5050883;28;20502;-70
2022/07/01 06:27:10;;;;;;;12.35;8.75;;;16.40;99.90;;;;;;5049488;28;20053;-70
2022/07/01 06:29:36;;;;;;;14.77;8.00;;;17.70;99.90;;;;;;5048828;28;20087;-70
2022/07/01 06:32:03;;;;;;;15.32;8.48;;;16.50;99.90;;;;;;5036116;28;20045;-71
2022/07/01 06:34:28;;;;;;;13.00;7.40;;;16.40;99.90;;;;;;5053690;28;20075;-70
2022/07/01 06:36:55;;;;;;;14.88;7.60;;;16.50;99.90;;;;;;5054724;28;20471;-70
2022/07/01 06:39:21;;;;;;;13.43;8.77;;;16.70;99.90;;;;;;5052441;28;20045;-70
2022/07/01 06:41:47;;;;;;;13.48;8.52;;;16.60;99.90;;;;;;5053516;28;20052;-70
2022/07/01 06:44:13;;;;;;;17.60;10.57;;;17.60;99.90;;;;;;5053310;28;20033;-70
2022/07/01 06:46:39;;;;;;;18.83;10.23;;;16.60;99.90;;;;;;5054711;28;20496;-72
2022/07/01 06:49:04;;;;;;;18.77;10.90;;;16.50;99.90;;;;;;5053979;28;20099;-70
2022/07/01 06:51:30;;;;;;;15.88;10.02;;;16.60;99.90;;;;;;5053180;28;20132;-70
2022/07/01 06:53:56;;;;;;;18.25;9.88;;;16.60;99.90;;;;;;5036415;28;20037;-69
2022/07/01 06:56:22;;;;;;;19.73;9.55;;;16.80;99.90;;;;;;5036307;28;20041;-70
2022/07/01 06:58:47;;;;;;;14.23;8.75;;;16.60;99.90;;;;;;5054296;28;20051;-71
2022/07/01 07:01:13;;;;;;;13.07;8.43;;;16.70;99.90;;;;;;5051163;28;20522;-69
2022/07/01 07:03:38;;;;;;;14.05;7.90;;;16.90;99.90;;;;;;5052874;28;20044;-70
2022/07/01 07:06:04;;;;;;;13.70;9.45;;;17.10;99.90;;;;;;5052782;28;20033;-70
2022/07/01 07:08:31;;;;;;;21.60;11.55;;;16.90;99.90;;;;;;5052617;28;20051;-71
2022/07/01 07:10:57;;;;;;;15.38;11.40;;;17.10;99.90;;;;;;5035333;28;20037;-70
2022/07/01 07:13:24;;;;;;;16.50;10.85;;;17.20;99.90;;;;;;5054218;28;20041;-70
2022/07/01 07:15:50;;;;;;;18.10;10.70;;;17.00;99.90;;;;;;5054003;28;20055;-70
2022/07/01 07:18:16;;;;;;;19.23;12.18;;;17.20;99.90;;;;;;5053805;28;20479;-70
2022/07/01 07:20:42;;;;;;;17.58;12.02;;;17.20;99.90;;;;;;5051693;28;20037;-70
2022/07/01 07:23:07;;;;;;;18.73;9.98;;;17.60;99.90;;;;;;5053676;28;20106;-70
2022/07/01 07:25:33;;;;;;;14.27;9.77;;;17.40;99.90;;;;;;5053973;28;20072;-70
2022/07/01 07:27:59;;;;;;;14.77;10.65;;;17.50;99.90;;;;;;5052414;28;20542;-69
2022/07/01 07:30:24;;;;;;;21.42;10.90;;;17.30;99.90;;;;;;5051575;28;20037;-70
2022/07/01 07:32:50;;;;;;;16.13;8.77;;;17.50;99.90;;;;;;5052538;28;20115;-70
2022/07/01 07:35:16;;;;;;;15.48;10.05;;;17.90;99.90;;;;;;5052199;28;20063;-70
2022/07/01 07:37:42;;;;;;;18.27;10.23;;;17.90;99.90;;;;;;5053422;28;20082;-70
2022/07/01 07:40:11;;;;;;;21.20;9.77;;;17.70;99.90;;;;;;5052920;28;20036;-72
2022/07/01 07:42:38;;;;;;;16.52;10.20;;;18.00;99.90;;;;;;5050919;28;20051;-70
2022/07/01 07:45:06;;;;;;;15.27;10.80;;;18.20;99.90;;;;;;5052095;28;20033;-71
2022/07/01 07:47:32;;;;;;;17.98;10.57;;;18.40;99.90;;;;;;5052132;28;20756;-70
2022/07/01 07:49:58;;;;;;;19.08;11.15;;;18.50;99.90;;;;;;5051136;28;20045;-70
2022/07/01 07:52:23;;;;;;;15.35;10.40;;;18.90;99.90;;;;;;5053189;28;20104;-70
2022/07/01 07:54:49;;;;;;;14.90;10.35;;;18.70;99.90;;;;;;5053349;28;20044;-71
2022/07/01 07:57:14;;;;;;;16.13;10.70;;;18.40;99.90;;;;;;5051838;28;20051;-70
2022/07/01 07:59:40;;;;;;;16.02;11.60;;;18.60;99.90;;;;;;5052489;28;20036;-70
2022/07/01 08:02:06;;;;;;;14.50;10.63;;;18.70;99.90;;;;;;5050890;28;20079;-70
2022/07/01 08:04:32;;;;;;;13.02;9.15;;;18.80;99.90;;;;;;5052822;28;20040;-70
2022/07/01 08:06:58;;;;;;;14.45;6.88;;;18.90;99.90;;;;;;5034983;28;20406;-70
2022/07/01 08:09:24;;;;;;;10.13;7.70;;;19.50;99.90;;;;;;5050825;28;20110;-70
2022/07/01 08:11:50;;;;;;;13.07;6.68;;;20.40;99.90;;;;;;5052696;28;20559;-70
2022/07/01 08:14:16;;;;;;;9.57;7.43;;;19.20;99.90;;;;;;5051602;28;20041;-71
2022/07/01 08:16:41;;;;;;;9.40;4.82;;;18.90;99.90;;;;;;5051333;28;20075;-71
2022/07/01 08:19:07;;;;;;;10.45;4.10;;;18.80;99.90;;;;;;5051723;28;20076;-68
2022/07/01 08:21:32;;;;;;;5.78;2.10;;;19.20;99.90;;;;;;5052560;28;20123;-70
2022/07/01 08:23:58;;;;;;;5.93;1.50;;;20.10;99.90;;;;;;5052928;28;20052;-70
2022/07/01 08:26:24;;;;;;;6.35;1.58;;;19.00;99.90;;;;;;5052706;28;20097;-70
2022/07/01 08:28:49;;;;;;;5.82;1.40;;;18.90;99.90;;;;;;5052550;28;20040;-70
2022/07/01 08:31:15;;;;;;;8.25;2.08;;;18.70;99.90;;;;;;5050463;28;20040;-70
2022/07/01 08:33:41;;;;;;;4.22;1.48;;;18.80;99.90;;;;;;5051093;28;20391;-70
2022/07/01 08:36:09;;;;;;;6.72;2.33;;;18.70;99.90;;;;;;5052365;28;20487;-70
2022/07/01 08:38:35;;;;;;;6.88;3.35;;;18.80;99.90;;;;;;5050949;28;20041;-72
2022/07/01 08:41:01;;;;;;;6.90;4.75;;;19.20;99.90;;;;;;5050233;28;20036;-70
2022/07/01 08:43:27;;;;;;;7.50;3.83;;;18.80;99.90;;;;;;5051394;28;20325;-72
2022/07/01 08:45:54;;;;;;;9.85;5.13;;;18.80;99.90;;;;;;5051313;28;20033;-72
2022/07/01 08:48:20;;;;;;;9.25;5.28;;;18.90;99.90;;;;;;5050983;28;20463;-70
2022/07/01 08:50:46;;;;;;;13.02;5.53;;;19.00;99.90;;;;;;5050091;28;20045;-70
2022/07/01 08:53:13;;;;;;;13.13;5.63;;;19.20;99.90;;;;;;5034146;28;20047;-70
2022/07/01 08:58:27;;;;;;;11.13;3.85;;;19.10;99.90;;;;;;5050533;28;20147;-70
2022/07/01 09:00:53;;;;;;;9.95;4.22;;;19.20;99.90;;;;;;5048720;28;20128;-70
2022/07/01 09:03:22;;;;;;;7.00;2.20;;;20.20;99.90;;;;;;5050761;28;20083;-70
2022/07/01 09:05:51;;;;;;;7.93;2.00;;;19.80;99.90;;;;;;5050663;28;20040;-70
2022/07/01 09:08:18;;;;;;;6.63;2.13;;;19.90;99.90;;;;;;5051584;28;20044;-71
2022/07/01 09:10:44;;;;;;;7.95;2.20;;;19.90;99.90;;;;;;5049908;28;20047;-70
2022/07/01 09:13:12;;;;;;;9.00;2.40;;;20.10;99.90;;;;;;5033823;28;20127;-70
2022/07/01 09:15:39;;;;;;;5.32;2.28;;;20.40;99.90;;;;;;5051872;28;20045;-70
2022/07/01 09:18:13;;;;;;;4.97;3.00;;;20.20;99.90;;;;;;5051724;28;20056;-70
2022/07/01 09:20:41;;;;;;;8.65;2.97;;;20.20;99.90;;;;;;5049817;28;20112;-70
2022/07/01 09:23:15;;;;;;;5.78;3.10;;;20.20;99.90;;;;;;5051525;28;20049;-70
2022/07/01 09:25:47;;;;;;;12.20;3.40;;;20.20;99.90;;;;;;5050582;28;20048;-70
2022/07/01 09:28:24;;;;;;;10.05;3.40;;;20.10;99.90;;;;;;5051664;28;20045;-70
2022/07/01 09:30:53;;;;;;;8.82;2.45;;;20.00;99.90;;;;;;5049816;28;20102;-70
2022/07/01 09:33:20;;;;;;;4.82;2.50;;;19.90;99.90;;;;;;5050464;28;20051;-70
2022/07/01 09:35:49;;;;;;;4.05;2.60;;;20.70;99.90;;;;;;5050074;28;20480;-68
2022/07/01 09:38:16;;;;;;;8.15;2.63;;;20.00;99.90;;;;;;5051449;28;20041;-70
2022/07/01 09:40:55;;;;;;;8.65;3.22;;;20.10;99.90;;;;;;5050802;28;20040;-70
2022/07/01 09:43:28;;;;;;;4.78;2.65;;;20.50;99.90;;;;;;5033459;28;20087;-71
2022/07/01 09:45:57;;;;;;;;;;;20.70;99.90;;;;;;5051828;28;20033;-70
2022/07/01 09:48:25;;;;;;;8.18;2.13;;;20.50;99.90;;;;;;5049848;28;19923;-70
2022/07/01 09:50:51;;;;;;;4.85;1.77;;;21.30;99.90;;;;;;5050756;28;20041;-70
2022/07/01 09:53:17;;;;;;;5.20;1.77;;;20.40;99.90;;;;;;5033367;28;20067;-71
2022/07/01 09:55:43;;;;;;;4.65;1.60;;;20.20;99.90;;;;;;5049933;28;20099;-72
2022/07/01 09:58:09;;;;;;;10.98;2.38;;;20.90;99.90;;;;;;5033268;28;20041;-70
2022/07/01 10:00:36;;;;;;;5.95;2.20;;;19.90;99.90;;;;;;5049282;28;20073;-70
2022/07/01 10:03:03;;;;;;;6.15;1.45;;;19.60;99.90;;;;;;5050010;28;20048;-70
2022/07/01 10:05:33;;;;;;;5.43;1.23;;;19.70;99.90;;;;;;5050564;28;20037;-70
2022/07/01 10:08:38;;;;;;;5.85;1.17;;;19.30;99.90;;;;;;5037312;28;20044;-70
2022/07/01 10:11:47;;;;;;;6.13;1.05;;;18.70;99.90;;;;;;5054669;28;20041;-70
2022/07/01 10:14:14;;;;;;;1.90;0.80;;;18.60;99.90;;;;;;5055349;28;20049;-70
2022/07/01 10:16:40;;;;;;;5.97;0.90;;;18.30;99.90;;;;;;5053799;28;20041;-70
2022/07/01 10:19:07;;;;;;;2.50;0.80;;;;;;;;;;5053061;28;20041;-70
2022/07/01 10:21:33;;;;;;;2.90;1.10;;;;;;;;;;5055136;28;20049;-70
2022/07/01 10:24:12;;;;;;;3.83;0.90;;;;;;;;;;5055122;28;20048;-71
2022/07/01 10:26:38;;;;;;;5.25;0.90;;;;;;;;;;5053646;28;20048;-70
2022/07/01 10:29:07;;;;;;;3.25;0.90;;;;;;;;;;5052977;28;20040;-70
2022/07/01 10:31:37;;;;;;;3.22;0.82;;;;;;;;;;5054722;28;20064;-71
2022/07/01 10:34:04;;;;;;;2.58;0.80;;;;;;;;;;5055050;28;20124;-70
2022/07/01 10:36:31;;;;;;;2.22;0.88;;;;;;;;;;5053474;28;20048;-71
2022/07/01 10:39:06;;;;;;;1.92;0.63;;;;;;;;;;5052828;28;20049;-69
2022/07/01 10:41:39;;;;;;;2.65;0.77;;;;;;;;;;5053502;28;20111;-72
2022/07/01 10:44:07;;;;;;;3.60;0.98;;;;;;;;;;5054629;28;20128;-71
2022/07/01 10:46:59;;;;;;;2.90;1.00;;;;;;;;;;5053194;28;20045;-70
2022/07/01 10:49:37;;;;;;;8.20;1.90;;;;;;;;;;5052387;28;20076;-70
2022/07/01 10:52:05;;;;;;;2.70;0.98;;;;;;;;;;5052734;28;20041;-70
2022/07/01 10:54:37;;;;;;;6.20;1.50;;;19.60;99.90;;;;;;5054313;28;20445;-70
2022/07/01 10:57:22;;;;;;;7.10;1.20;;;19.40;99.90;;;;;;5052995;28;20041;-72
2022/07/01 10:59:50;;;;;;;4.75;0.90;;;20.30;99.90;;;;;;5052119;28;20053;-70
2022/07/01 11:02:20;;;;;;;3.63;0.90;;;20.20;99.90;;;;;;5051267;28;20043;-70
2022/07/01 11:04:47;;;;;;;3.28;1.27;;;20.10;99.90;;;;;;5052879;28;20037;-71
2022/07/01 11:07:12;;;;;;;2.53;1.08;;;21.50;99.90;;;;;;5054263;28;20037;-70
2022/07/01 11:09:38;;;;;;;3.75;1.52;;;20.60;99.90;;;;;;5053092;28;20044;-70
2022/07/01 11:12:06;;;;;;;4.53;1.58;;;20.90;99.90;;;;;;5054164;28;20037;-71
2022/07/01 11:14:36;;;;;;;2.92;1.02;;;20.80;99.90;;;;;;5052550;28;20037;-71
2022/07/01 11:17:03;;;;;;;8.48;1.33;;;21.00;99.90;;;;;;5053622;28;20037;-70
2022/07/01 11:19:29;;;;;;;3.55;1.40;;;21.30;99.90;;;;;;5051680;28;20041;-71
2022/07/01 11:21:54;;;;;;;3.35;0.90;;;20.70;99.90;;;;;;5054039;28;20078;-70
2022/07/01 11:24:21;;;;;;;3.42;1.58;;;21.00;99.90;;;;;;5052532;28;20041;-71
2022/07/01 11:26:48;;;;;;;6.60;1.50;;;20.70;99.90;;;;;;5052664;28;20438;-70
2022/07/01 11:29:14;;;;;;;2.83;1.05;;;22.40;99.90;;;;;;5051566;28;20041;-70
2022/07/01 11:31:40;;;;;;;5.35;1.00;;;21.40;99.90;;;;;;5053714;28;20040;-71
2022/07/01 11:34:06;;;;;;;6.60;1.35;;;21.20;99.90;;;;;;5053838;28;20040;-70
2022/07/01 11:39:24;;;;;;;4.07;1.05;;;20.40;99.90;;;;;;5051507;28;20052;-70
2022/07/01 11:41:57;;;;;;;5.47;1.33;;;20.30;99.90;;;;;;5053606;28;20516;-71
2022/07/01 11:44:44;;;;;;;5.05;1.40;;;20.20;99.90;;;;;;5053689;28;20044;-71
2022/07/01 11:47:23;;;;;;;2.33;0.90;;;20.90;99.90;;;;;;5053531;28;20076;-70
2022/07/01 11:49:49;;;;;;;3.38;0.98;;;22.50;99.90;;;;;;5051298;28;20036;-71
2022/07/01 11:52:16;;;;;;;2.47;1.25;;;21.60;99.90;;;;;;5035270;28;20041;-70
2022/07/01 11:54:47;;;;;;;4.45;1.42;;;21.20;99.90;;;;;;5053444;28;20072;-71
2022/07/01 11:57:21;;;;;;;3.90;1.02;;;22.00;99.90;;;;;;5035355;28;20116;-70
2022/07/01 11:59:48;;;;;;;3.35;0.80;;;21.40;99.90;;;;;;5052482;28;20091;-70
2022/07/01 12:02:18;;;;;;;3.10;0.82;;;20.80;99.90;;;;;;5051369;28;20047;-70
2022/07/01 12:04:44;;;;;;;3.47;0.95;;;21.60;99.90;;;;;;5053359;28;20041;-70
2022/07/01 12:07:12;;;;;;;5.00;1.00;;;21.00;99.90;;;;;;5052848;28;20166;-71
2022/07/01 12:09:38;;;;;;;3.42;1.00;;;21.30;99.90;;;;;;5050125;22;20527;-72
2022/07/01 12:12:06;;;;;;;4.80;0.90;;;22.10;99.90;;;;;;4976932;28;20133;-72
2022/07/01 12:14:35;;;;;;;3.90;0.60;;;21.70;99.90;;;;;;4993936;28;20060;-72
2022/07/01 12:17:05;;;;;;;3.78;0.60;;;22.70;99.90;;;;;;4976318;28;20125;-72
2022/07/01 12:19:46;;;;;;;3.63;0.80;;;22.70;99.90;;;;;;4975413;28;20463;-72
2022/07/01 12:22:18;;;;;;;2.72;0.65;;;20.90;99.80;;;;;;4960143;28;20069;-71
2022/07/01 12:24:45;;;;;;;2.97;0.70;;;20.80;99.90;;;;;;4960214;28;20117;-71
2022/07/01 12:27:11;;;;;;;7.43;0.77;;;21.80;99.90;;;;;;4976130;28;20042;-72
2022/07/01 12:29:42;;;;;;;1.85;0.70;;;21.00;99.90;;;;;;4974563;28;20491;-72
2022/07/01 12:32:12;;;;;;;2.25;0.70;;;22.20;99.70;;;;;;4993921;28;20444;-72
2022/07/01 12:34:39;;;;;;;2.22;0.65;;;21.40;99.80;;;;;;4993606;28;20092;-72
2022/07/01 12:37:13;;;;;;;6.13;0.93;;;21.70;99.90;;;;;;4976102;28;20116;-71
2022/07/01 12:39:47;;;;;;;4.40;0.93;;;22.90;99.90;;;;;;4992607;28;20052;-71
2022/07/01 12:42:23;;;;;;;5.15;0.88;;;22.10;99.90;;;;;;4975912;28;20042;-72
2022/07/01 12:44:51;;;;;;;3.30;1.00;;;22.70;99.10;;;;;;4976129;28;20392;-72
2022/07/01 12:47:33;;;;;;;3.70;0.90;;;21.90;99.00;;;;;;4975823;28;20125;-72
2022/07/01 12:50:10;;;;;;;12.60;1.27;;;22.40;98.90;;;;;;4958927;28;20085;-72
2022/07/01 12:52:41;;;;;;;3.70;1.10;;;21.90;99.10;;;;;;4975869;28;20124;-72
2022/07/01 12:55:18;;;;;;;4.57;1.15;;;21.40;99.40;;;;;;4959555;28;20074;-72
2022/07/01 12:57:50;;;;;;;6.60;1.23;;;22.00;99.70;;;;;;4975718;28;20038;-72
2022/07/01 13:00:17;;;;;;;5.35;1.42;;;21.60;99.60;;;;;;4973214;28;20059;-71
2022/07/01 13:02:42;;;;;;;4.60;0.90;;;21.30;99.70;;;;;;4975457;28;20042;-71
2022/07/01 13:05:08;;;;;;;4.05;0.82;;;21.30;99.90;;;;;;4993134;28;20088;-72
2022/07/01 13:07:34;;;;;;;5.05;1.38;;;21.00;99.90;;;;;;4975568;28;20092;-72